createdAt,value
2019-05-18T00:01:36.166Z,99.90
2019-05-18T00:04:06.245Z,99.90
2019-05-18T00:06:36.143Z,99.90
2019-05-18T00:09:07.334Z,99.90
2019-05-18T00:11:37.425Z,99.90
2019-05-18T00:14:07.437Z,99.90
2019-05-18T00:16:37.331Z,99.90
2019-05-18T00:19:07.130Z,99.90
2019-05-18T00:21:37.014Z,99.90
2019-05-18T00:24:06.835Z,99.90
2019-05-18T00:26:37.068Z,99.90
2019-05-18T00:29:06.972Z,99.90
2019-05-18T00:31:36.805Z,99.90
2019-05-18T00:34:06.640Z,99.90
2019-05-18T00:36:36.553Z,99.90
2019-05-18T00:39:08.767Z,99.90
2019-05-18T00:41:38.838Z,99.90
2019-05-18T00:44:08.663Z,99.90
2019-05-18T00:46:38.567Z,99.90
2019-05-18T00:49:08.488Z,99.90
2019-05-18T00:51:38.413Z,99.90
2019-05-18T00:54:08.535Z,99.90
2019-05-18T00:56:38.542Z,99.90
2019-05-18T00:59:08.454Z,99.90
2019-05-18T01:01:38.320Z,99.90
2019-05-18T01:04:08.134Z,99.90
2019-05-18T01:06:37.977Z,99.90
2019-05-18T01:09:08.352Z,99.90
2019-05-18T01:11:38.369Z,99.90
2019-05-18T01:14:08.441Z,99.90
2019-05-18T01:16:38.409Z,99.90
2019-05-18T01:19:08.246Z,99.90
2019-05-18T01:21:38.135Z,99.90
2019-05-18T01:24:08.052Z,99.90
2019-05-18T01:26:37.897Z,99.90
2019-05-18T01:29:09.460Z,99.90
2019-05-18T01:31:39.344Z,99.90
2019-05-18T01:34:09.183Z,99.90
2019-05-18T01:36:39.023Z,99.90
2019-05-18T01:39:09.067Z,99.90
2019-05-18T01:41:39.103Z,99.90
2019-05-18T01:44:08.921Z,99.90
2019-05-18T01:46:38.760Z,99.90
2019-05-18T01:49:08.595Z,99.90
2019-05-18T01:51:38.446Z,99.90
2019-05-18T01:54:08.224Z,99.90
2019-05-18T01:56:38.085Z,99.90
2019-05-18T01:59:07.920Z,99.90
2019-05-18T02:01:37.772Z,99.90
2019-05-18T02:04:07.624Z,99.90
2019-05-18T02:06:37.483Z,99.90
2019-05-18T02:09:09.708Z,99.90
2019-05-18T02:11:39.510Z,99.90
2019-05-18T02:14:09.328Z,99.90
2019-05-18T02:16:39.172Z,99.90
2019-05-18T02:19:09.083Z,99.90
2019-05-18T02:21:39.032Z,99.90
2019-05-18T02:24:08.896Z,99.90
2019-05-18T02:26:38.906Z,99.90
2019-05-18T02:29:08.761Z,99.90
2019-05-18T02:31:38.607Z,99.90
2019-05-18T02:34:08.411Z,99.90
2019-05-18T02:36:38.228Z,99.90
2019-05-18T02:39:09.173Z,99.90
2019-05-18T02:41:39.145Z,99.90
2019-05-18T02:44:09.429Z,99.90
2019-05-18T02:46:39.238Z,99.90
2019-05-18T02:49:09.040Z,99.90
2019-05-18T02:51:38.865Z,99.90
2019-05-18T02:54:08.665Z,99.90
2019-05-18T02:56:38.595Z,99.90
2019-05-18T02:59:08.422Z,99.90
2019-05-18T03:01:38.304Z,99.90
2019-05-18T03:04:08.113Z,99.90
2019-05-18T03:06:38.059Z,99.90
2019-05-18T03:09:08.203Z,99.90
2019-05-18T03:11:38.006Z,99.90
2019-05-18T03:14:08.014Z,99.90
2019-05-18T03:16:37.978Z,99.90
2019-05-18T03:19:09.149Z,99.90
2019-05-18T03:21:39.438Z,99.90
2019-05-18T03:24:09.381Z,99.90
2019-05-18T03:26:39.217Z,99.90
2019-05-18T03:29:09.238Z,99.90
2019-05-18T03:31:39.069Z,99.90
2019-05-18T03:34:08.916Z,99.90
2019-05-18T03:36:38.717Z,99.90
2019-05-18T03:39:08.646Z,99.90
2019-05-18T03:41:38.431Z,99.90
2019-05-18T03:44:08.354Z,99.90
2019-05-18T03:46:38.284Z,99.90
2019-05-18T03:49:25.414Z,99.90
2019-05-18T03:51:39.564Z,99.90
2019-05-18T03:54:09.715Z,99.90
2019-05-18T03:56:39.513Z,99.90
2019-05-18T03:59:09.501Z,99.90
2019-05-18T04:01:39.270Z,99.90
2019-05-18T04:04:09.257Z,99.90
2019-05-18T04:06:39.189Z,99.90
2019-05-18T04:09:09.044Z,99.90
2019-05-18T04:11:38.932Z,99.90
2019-05-18T04:14:09.062Z,99.90
2019-05-18T04:16:39.181Z,99.90
2019-05-18T04:19:09.020Z,99.90
2019-05-18T04:21:38.947Z,99.90
2019-05-18T04:24:08.782Z,99.90
2019-05-18T04:26:38.604Z,99.90
2019-05-18T04:29:08.419Z,99.90
2019-05-18T04:31:38.226Z,99.90
2019-05-18T04:34:08.043Z,99.90
2019-05-18T04:36:37.810Z,99.90
2019-05-18T04:39:07.934Z,99.90
2019-05-18T04:41:37.750Z,99.90
2019-05-18T04:44:07.953Z,99.90
2019-05-18T04:46:37.829Z,99.90
2019-05-18T04:49:07.668Z,99.90
2019-05-18T04:51:37.660Z,99.90
2019-05-18T04:54:07.473Z,99.90
2019-05-18T04:56:37.260Z,99.90
2019-05-18T04:59:07.353Z,99.90
2019-05-18T05:01:37.194Z,99.90
2019-05-18T05:04:07.064Z,99.90
2019-05-18T05:06:36.841Z,99.90
2019-05-18T05:09:08.758Z,99.90
2019-05-18T05:11:38.616Z,99.90
2019-05-18T05:14:08.692Z,99.90
2019-05-18T05:16:38.555Z,99.90
2019-05-18T05:19:08.937Z,99.90
2019-05-18T05:21:38.993Z,99.90
2019-05-18T05:24:08.954Z,99.90
2019-05-18T05:26:39.609Z,99.90
2019-05-18T05:29:09.872Z,99.90
2019-05-18T05:31:39.760Z,99.90
2019-05-18T05:34:09.699Z,99.90
2019-05-18T05:36:39.532Z,99.90
2019-05-18T05:39:09.397Z,99.90
2019-05-18T05:41:39.278Z,99.90
2019-05-18T05:44:09.266Z,99.90
2019-05-18T05:46:39.253Z,99.90
2019-05-18T05:49:09.735Z,99.90
2019-05-18T05:51:40.938Z,99.90
2019-05-18T05:54:10.912Z,99.90
2019-05-18T05:56:40.731Z,99.90
2019-05-18T05:59:10.682Z,99.90
2019-05-18T06:01:40.483Z,99.90
2019-05-18T06:04:10.472Z,99.90
2019-05-18T06:06:40.300Z,99.90
2019-05-18T06:09:10.483Z,99.90
2019-05-18T06:11:40.435Z,99.90
2019-05-18T06:14:10.301Z,99.90
2019-05-18T06:16:41.539Z,99.90
2019-05-18T06:19:11.610Z,99.90
2019-05-18T06:21:41.700Z,99.90
2019-05-18T06:24:11.695Z,99.90
2019-05-18T06:26:42.187Z,99.90
2019-05-18T06:29:12.395Z,99.90
2019-05-18T06:31:42.573Z,99.90
2019-05-18T06:34:12.514Z,99.90
2019-05-18T06:36:42.476Z,99.90
2019-05-18T06:39:12.638Z,99.90
2019-05-18T06:41:42.633Z,99.90
2019-05-18T06:44:12.528Z,99.90
2019-05-18T06:46:42.495Z,99.90
2019-05-18T06:49:12.617Z,99.90
2019-05-18T06:51:42.958Z,99.90
2019-05-18T06:54:12.978Z,99.90
2019-05-18T06:56:45.958Z,99.90
2019-05-18T06:59:17.198Z,99.90
2019-05-18T07:01:47.525Z,99.90
2019-05-18T07:04:17.710Z,99.90
2019-05-18T07:06:47.577Z,99.90
2019-05-18T07:09:17.549Z,99.90
2019-05-18T07:11:47.440Z,99.90
2019-05-18T07:14:25.303Z,99.90
2019-05-18T07:16:49.019Z,99.90
2019-05-18T07:19:18.805Z,99.90
2019-05-18T07:21:48.707Z,99.90
2019-05-18T07:24:19.435Z,99.90
2019-05-18T07:26:49.612Z,99.90
2019-05-18T07:29:19.498Z,99.90
2019-05-18T07:31:49.426Z,99.90
2019-05-18T07:34:19.469Z,99.90
2019-05-18T07:36:49.431Z,99.90
2019-05-18T07:39:19.266Z,99.90
2019-05-18T07:41:49.210Z,99.90
2019-05-18T07:44:19.141Z,99.90
2019-05-18T07:46:49.090Z,99.90
2019-05-18T07:49:18.971Z,99.90
2019-05-18T07:51:48.867Z,99.90
2019-05-18T07:54:19.002Z,99.90
2019-05-18T07:56:48.954Z,99.90
2019-05-18T07:59:19.919Z,99.90
2019-05-18T08:01:50.077Z,99.90
2019-05-18T08:04:20.082Z,99.90
2019-05-18T08:06:50.093Z,99.90
2019-05-18T08:09:20.087Z,99.90
2019-05-18T08:11:50.047Z,99.90
2019-05-18T08:14:19.980Z,99.70
2019-05-18T08:16:49.898Z,99.20
2019-05-18T08:19:19.847Z,99.10
2019-05-18T08:21:53.175Z,98.00
2019-05-18T08:24:21.461Z,96.10
2019-05-18T08:26:51.296Z,96.40
2019-05-18T08:29:21.238Z,99.40
2019-05-18T08:31:51.115Z,97.80
2019-05-18T08:34:21.087Z,96.00
2019-05-18T08:36:50.925Z,94.30
2019-05-18T08:39:20.849Z,90.10
2019-05-18T08:41:50.876Z,89.90
2019-05-18T08:44:20.737Z,90.00
2019-05-18T08:46:50.617Z,88.20
2019-05-18T08:49:20.567Z,85.30
2019-05-18T08:51:50.471Z,87.80
2019-05-18T08:54:20.326Z,85.70
2019-05-18T08:56:50.165Z,85.30
2019-05-18T08:59:20.129Z,89.80
2019-05-18T09:01:49.980Z,88.00
2019-05-18T09:04:19.889Z,86.50
2019-05-18T09:06:49.702Z,86.40
2019-05-18T09:09:19.662Z,86.00
2019-05-18T09:11:49.594Z,89.40
2019-05-18T09:14:19.455Z,86.90
2019-05-18T09:16:49.710Z,83.40
2019-05-18T09:19:19.726Z,81.40
2019-05-18T09:21:49.691Z,83.40
2019-05-18T09:24:19.557Z,82.00
2019-05-18T09:26:49.434Z,79.70
2019-05-18T09:29:19.338Z,82.00
2019-05-18T09:31:49.414Z,86.80
2019-05-18T09:34:19.343Z,77.20
2019-05-18T09:36:49.176Z,76.30
2019-05-18T09:39:19.723Z,77.20
2019-05-18T09:41:49.592Z,79.20
2019-05-18T09:44:19.427Z,76.90
2019-05-18T09:46:49.244Z,78.00
2019-05-18T09:49:19.077Z,77.10
2019-05-18T09:51:48.940Z,75.30
2019-05-18T09:54:18.801Z,74.20
2019-05-18T09:56:51.565Z,78.10
2019-05-18T09:59:21.459Z,73.20
2019-05-18T10:01:51.316Z,72.50
2019-05-18T10:04:21.275Z,72.40
2019-05-18T10:06:51.107Z,75.30
2019-05-18T10:09:21.027Z,76.40
2019-05-18T10:11:50.990Z,74.50
2019-05-18T10:14:20.984Z,77.20
2019-05-18T10:16:57.063Z,77.90
2019-05-18T10:19:30.300Z,77.70
2019-05-18T10:22:02.844Z,79.90
2019-05-18T10:24:34.096Z,80.40
2019-05-18T10:27:09.614Z,80.80
2019-05-18T10:29:46.698Z,76.60
2019-05-18T10:32:17.245Z,78.10
2019-05-18T10:34:48.592Z,77.20
2019-05-18T10:37:20.508Z,77.60
2019-05-18T10:39:56.200Z,77.20
2019-05-18T10:42:26.667Z,77.90
2019-05-18T10:45:00.750Z,76.20
2019-05-18T10:47:38.479Z,75.40
2019-05-18T10:50:13.601Z,73.00
2019-05-18T10:52:44.535Z,72.60
2019-05-18T10:55:22.028Z,70.70
2019-05-18T10:57:54.153Z,68.20
2019-05-18T11:00:26.566Z,69.90
2019-05-18T11:02:57.058Z,69.10
2019-05-18T11:05:32.706Z,70.40
2019-05-18T11:08:07.433Z,66.60
2019-05-18T11:10:39.154Z,62.90
2019-05-18T11:13:10.493Z,62.60
2019-05-18T11:15:40.429Z,60.10
2019-05-18T11:18:10.546Z,59.70
2019-05-18T11:20:47.556Z,59.30
2019-05-18T11:23:19.818Z,61.00
2019-05-18T11:25:49.873Z,59.70
2019-05-18T11:28:20.083Z,62.10
2019-05-18T11:30:51.024Z,59.90
2019-05-18T11:33:24.250Z,59.90
2019-05-18T11:35:54.311Z,62.60
2019-05-18T11:38:24.166Z,61.20
2019-05-18T11:40:54.054Z,60.10
2019-05-18T11:43:23.936Z,66.50
2019-05-18T11:45:53.853Z,60.20
2019-05-18T11:48:23.776Z,60.30
2019-05-18T11:50:53.937Z,58.80
2019-05-18T11:53:25.869Z,59.30
2019-05-18T11:55:55.832Z,60.40
2019-05-18T11:58:25.654Z,61.50
2019-05-18T12:00:55.731Z,59.20
2019-05-18T12:03:25.897Z,58.60
2019-05-18T12:05:55.811Z,61.60
2019-05-18T12:08:25.983Z,60.30
2019-05-18T12:10:58.732Z,60.80
2019-05-18T12:13:28.810Z,59.90
2019-05-18T12:15:58.655Z,60.00
2019-05-18T12:18:28.555Z,60.80
2019-05-18T12:20:58.829Z,59.10
2019-05-18T12:23:29.086Z,58.50
2019-05-18T12:25:58.984Z,59.20
2019-05-18T12:28:31.397Z,61.40
2019-05-18T12:31:02.139Z,60.00
2019-05-18T12:33:32.514Z,58.30
2019-05-18T12:36:02.406Z,60.00
2019-05-18T12:38:32.364Z,57.40
2019-05-18T12:41:02.323Z,57.00
2019-05-18T12:43:32.511Z,58.00
2019-05-18T12:46:02.554Z,56.80
2019-05-18T12:48:32.350Z,57.50
2019-05-18T12:51:02.185Z,58.10
2019-05-18T12:53:32.043Z,56.00
2019-05-18T12:56:01.914Z,56.80
2019-05-18T12:58:31.725Z,54.70
2019-05-18T13:01:01.825Z,57.20
2019-05-18T13:03:31.724Z,54.40
2019-05-18T13:06:01.886Z,54.40
2019-05-18T13:08:31.726Z,54.40
2019-05-18T13:11:01.828Z,54.40
2019-05-18T13:13:31.668Z,53.40
2019-05-18T13:16:01.529Z,54.10
2019-05-18T13:18:31.642Z,53.60
2019-05-18T13:21:01.882Z,53.90
2019-05-18T13:23:36.078Z,55.10
2019-05-18T13:26:05.977Z,52.50
2019-05-18T13:28:36.092Z,51.30
2019-05-18T13:31:06.045Z,51.40
2019-05-18T13:33:35.920Z,51.80
2019-05-18T13:36:05.933Z,52.10
2019-05-18T13:38:35.775Z,51.00
2019-05-18T13:41:06.939Z,51.60
2019-05-18T13:43:36.940Z,50.80
2019-05-18T13:46:06.791Z,50.70
2019-05-18T13:48:36.679Z,51.00
2019-05-18T13:51:06.758Z,52.10
2019-05-18T13:53:36.667Z,50.80
2019-05-18T13:56:06.746Z,48.80
2019-05-18T13:58:36.577Z,48.90
2019-05-18T14:01:06.778Z,48.90
2019-05-18T14:03:36.687Z,49.60
2019-05-18T14:06:06.871Z,49.60
2019-05-18T14:08:36.678Z,49.60
2019-05-18T14:11:06.683Z,49.50
2019-05-18T14:13:36.741Z,49.00
2019-05-18T14:16:06.699Z,50.40
2019-05-18T14:18:36.630Z,49.30
2019-05-18T14:21:09.359Z,51.00
2019-05-18T14:23:39.328Z,49.50
2019-05-18T14:26:09.191Z,48.30
2019-05-18T14:28:41.864Z,48.70
2019-05-18T14:31:11.931Z,48.30
2019-05-18T14:33:42.005Z,49.40
2019-05-18T14:36:12.032Z,48.50
2019-05-18T14:38:41.894Z,48.60
2019-05-18T14:41:11.792Z,49.80
2019-05-18T14:43:42.053Z,50.60
2019-05-18T14:46:15.426Z,48.20
2019-05-18T14:48:45.210Z,47.90
2019-05-18T14:51:15.211Z,47.80
2019-05-18T14:53:45.205Z,48.10
2019-05-18T14:56:16.839Z,49.10
2019-05-18T14:58:47.154Z,47.70
2019-05-18T15:01:17.158Z,48.60
2019-05-18T15:03:46.980Z,47.80
2019-05-18T15:06:16.934Z,49.10
2019-05-18T15:08:46.878Z,49.80
2019-05-18T15:11:16.748Z,48.60
2019-05-18T15:13:46.732Z,48.40
2019-05-18T15:16:16.611Z,49.00
2019-05-18T15:18:46.468Z,50.60
2019-05-18T15:21:16.672Z,48.90
2019-05-18T15:23:47.146Z,48.20
2019-05-18T15:26:17.079Z,48.60
2019-05-18T15:28:47.110Z,47.60
2019-05-18T15:31:16.948Z,47.30
2019-05-18T15:33:48.958Z,46.00
2019-05-18T15:36:24.048Z,46.40
2019-05-18T15:38:53.978Z,47.00
2019-05-18T15:41:24.108Z,47.70
2019-05-18T15:43:59.648Z,49.00
2019-05-18T15:46:30.058Z,47.70
2019-05-18T15:49:00.011Z,47.80
2019-05-18T15:51:30.121Z,48.80
2019-05-18T15:54:00.091Z,48.40
2019-05-18T15:56:29.925Z,48.30
2019-05-18T15:59:00.566Z,48.10
2019-05-18T16:01:30.511Z,49.10
2019-05-18T16:04:00.744Z,49.30
2019-05-18T16:06:30.939Z,48.90
2019-05-18T16:09:01.047Z,49.30
2019-05-18T16:11:30.908Z,49.60
2019-05-18T16:14:00.762Z,48.70
2019-05-18T16:16:30.626Z,49.80
2019-05-18T16:19:00.524Z,51.10
2019-05-18T16:21:30.553Z,51.30
2019-05-18T16:24:03.076Z,50.50
2019-05-18T16:26:33.873Z,49.80
2019-05-18T16:29:04.063Z,50.10
2019-05-18T16:31:33.925Z,50.60
2019-05-18T16:34:03.827Z,50.50
2019-05-18T16:36:33.747Z,49.90
2019-05-18T16:39:05.057Z,50.00
2019-05-18T16:41:35.248Z,50.40
2019-05-18T16:44:05.324Z,50.60
2019-05-18T16:46:35.188Z,50.80
2019-05-18T16:49:09.869Z,51.60
2019-05-18T16:51:39.762Z,52.40
2019-05-18T16:54:09.724Z,51.30
2019-05-18T16:56:39.714Z,51.40
2019-05-18T16:59:09.681Z,51.60
2019-05-18T17:01:39.670Z,53.10
2019-05-18T17:04:09.600Z,52.00
2019-05-18T17:06:39.629Z,53.20
2019-05-18T17:09:10.033Z,53.20
2019-05-18T17:11:40.122Z,53.20
2019-05-18T17:14:10.196Z,53.60
2019-05-18T17:16:40.015Z,54.20
2019-05-18T17:19:10.197Z,52.70
2019-05-18T17:21:40.179Z,53.40
2019-05-18T17:24:10.124Z,54.10
2019-05-18T17:26:52.290Z,54.70
2019-05-18T17:29:11.560Z,55.00
2019-05-18T17:31:44.262Z,54.90
2019-05-18T17:34:14.235Z,54.20
2019-05-18T17:36:44.155Z,54.70
2019-05-18T17:39:14.015Z,55.00
2019-05-18T17:41:43.930Z,54.70
2019-05-18T17:44:13.851Z,55.60
2019-05-18T17:46:43.702Z,55.80
2019-05-18T17:49:25.879Z,55.80
2019-05-18T17:51:45.439Z,55.90
2019-05-18T17:54:15.393Z,56.50
2019-05-18T17:56:45.409Z,55.60
2019-05-18T17:59:15.567Z,57.10
2019-05-18T18:01:45.444Z,58.30
2019-05-18T18:04:15.486Z,60.10
2019-05-18T18:06:45.614Z,61.10
2019-05-18T18:09:16.186Z,62.60
2019-05-18T18:11:46.123Z,63.40
2019-05-18T18:14:17.717Z,65.10
2019-05-18T18:16:47.705Z,66.90
2019-05-18T18:19:17.819Z,68.20
2019-05-18T18:21:47.803Z,70.00
2019-05-18T18:24:18.051Z,72.10
2019-05-18T18:26:48.091Z,73.50
2019-05-18T18:29:18.039Z,75.60
2019-05-18T18:31:48.168Z,78.70
2019-05-18T18:34:18.245Z,81.90
2019-05-18T18:36:48.565Z,85.30
2019-05-18T18:39:18.617Z,89.30
2019-05-18T18:41:48.780Z,92.10
2019-05-18T18:44:19.322Z,94.70
2019-05-18T18:46:57.503Z,98.80
2019-05-18T18:49:26.548Z,99.90
2019-05-18T18:51:56.790Z,99.90
2019-05-18T18:54:36.089Z,99.90
2019-05-18T18:57:13.743Z,99.90
2019-05-18T18:59:46.928Z,99.90
2019-05-18T19:02:17.285Z,99.90
2019-05-18T19:04:55.750Z,99.90
2019-05-18T19:07:48.730Z,99.90
2019-05-18T19:10:00.816Z,99.90
2019-05-18T19:15:19.855Z,99.90
2019-05-18T19:17:50.459Z,99.90
2019-05-18T19:20:25.981Z,99.90
2019-05-18T19:23:15.850Z,99.90
2019-05-18T19:25:51.629Z,99.90
2019-05-18T19:28:33.381Z,99.90
2019-05-18T19:31:06.569Z,99.90
2019-05-18T19:33:36.850Z,99.90
2019-05-18T19:36:08.078Z,99.90
2019-05-18T19:39:17.648Z,99.90
2019-05-18T19:42:06.818Z,99.90
2019-05-18T19:44:47.164Z,99.90
2019-05-18T19:47:34.731Z,99.90
2019-05-18T19:50:02.252Z,99.90
2019-05-18T19:52:40.216Z,99.90
2019-05-18T19:55:23.682Z,99.90
2019-05-18T19:58:24.216Z,99.90
2019-05-18T20:00:51.886Z,99.90
2019-05-18T20:03:22.517Z,99.90
2019-05-18T20:05:53.492Z,99.90
2019-05-18T20:08:31.192Z,99.90
2019-05-18T20:11:02.421Z,99.90
2019-05-18T20:13:32.784Z,99.90
2019-05-18T20:16:06.606Z,99.90
2019-05-18T20:18:36.853Z,99.90
2019-05-18T20:21:07.948Z,99.90
2019-05-18T20:23:38.261Z,99.90
2019-05-18T20:26:08.436Z,99.90
2019-05-18T20:28:40.652Z,99.90
2019-05-18T20:31:21.620Z,99.90
2019-05-18T20:34:14.759Z,99.90
2019-05-18T20:36:52.483Z,99.90
2019-05-18T20:39:28.739Z,99.90
2019-05-18T20:41:58.801Z,99.90
2019-05-18T20:44:28.719Z,99.90
2019-05-18T20:46:58.694Z,99.90
2019-05-18T20:49:28.546Z,99.90
2019-05-18T20:51:58.817Z,99.90
2019-05-18T20:54:31.819Z,99.90
2019-05-18T20:57:03.681Z,99.90
2019-05-18T20:59:33.633Z,99.90
2019-05-18T21:02:03.979Z,99.90
2019-05-18T21:04:37.752Z,99.90
2019-05-18T21:07:12.335Z,99.90
2019-05-18T21:09:53.241Z,99.90
2019-05-18T21:12:48.859Z,99.90
2019-05-18T21:15:32.978Z,99.90
2019-05-18T21:18:11.459Z,99.90
2019-05-18T21:20:46.505Z,99.90
2019-05-18T21:23:37.114Z,99.90
2019-05-18T21:26:59.422Z,99.90
2019-05-18T21:30:13.048Z,99.90
2019-05-18T21:32:44.557Z,99.90
2019-05-18T21:35:27.188Z,99.90
2019-05-18T21:38:30.429Z,99.90
2019-05-18T21:40:59.575Z,99.90
2019-05-18T21:44:13.910Z,99.90
2019-05-18T21:46:49.245Z,99.90
2019-05-18T21:49:19.109Z,99.90
2019-05-18T21:51:49.341Z,99.90
2019-05-18T21:54:40.098Z,99.90
2019-05-18T21:57:10.230Z,99.90
2019-05-18T21:59:40.127Z,99.90
2019-05-18T22:02:10.299Z,99.90
2019-05-18T22:04:59.271Z,99.90
2019-05-18T22:07:29.174Z,99.90
2019-05-18T22:10:00.479Z,99.90
2019-05-18T22:12:31.493Z,99.90
2019-05-18T22:15:04.304Z,99.90
2019-05-18T22:17:37.815Z,99.90
2019-05-18T22:20:08.528Z,99.90
2019-05-18T22:22:38.915Z,99.90
2019-05-18T22:25:08.827Z,99.90
2019-05-18T22:27:38.718Z,99.90
2019-05-18T22:30:08.663Z,99.90
2019-05-18T22:32:38.504Z,99.90
2019-05-18T22:35:08.736Z,99.90
2019-05-18T22:37:38.786Z,99.90
2019-05-18T22:40:21.029Z,99.90
2019-05-18T22:42:52.343Z,99.90
2019-05-18T22:45:22.326Z,99.90
2019-05-18T22:47:52.831Z,99.90
2019-05-18T22:50:23.029Z,99.90
2019-05-18T22:52:53.324Z,99.90
2019-05-18T22:55:23.256Z,99.90
2019-05-18T22:57:53.287Z,99.90
2019-05-18T23:00:25.098Z,99.90
2019-05-18T23:02:58.706Z,99.90
2019-05-18T23:05:44.241Z,99.90
2019-05-18T23:08:14.494Z,99.90
2019-05-18T23:10:44.656Z,99.90
2019-05-18T23:13:15.125Z,99.90
2019-05-18T23:15:46.919Z,99.90
2019-05-18T23:18:18.642Z,99.90
2019-05-18T23:20:48.569Z,99.90
2019-05-18T23:23:21.517Z,99.90
2019-05-18T23:25:51.381Z,99.90
2019-05-18T23:28:21.958Z,99.90
2019-05-18T23:30:54.508Z,99.90
2019-05-18T23:33:27.281Z,99.90
2019-05-18T23:35:58.096Z,99.90
2019-05-18T23:38:29.695Z,99.90
2019-05-18T23:41:03.250Z,99.90
2019-05-18T23:43:33.911Z,99.90
2019-05-18T23:46:10.940Z,99.90
2019-05-18T23:48:38.522Z,99.90
2019-05-18T23:51:10.559Z,99.90
2019-05-18T23:53:42.818Z,99.90
2019-05-18T23:56:12.617Z,99.90
2019-05-18T23:58:42.459Z,99.90
